Time;durP1;ratioP1;P1;durP2;ratioP2;P2;SDS_P1;SDS_P2;PMS_P1;PMS_P2;Temp;Humidity;BMP_temperature;BMP_pressure;BME280_temperature;BME280_humidity;BME280_pressure;Samples;Min_cycle;Max_cycle;Signal;HPM_P1;HPM_P2
2023/06/14 05:01:37;;;;;;;9.05;4.97;;;15.50;78.20;;;;;;5989048;23;20022;31
2023/06/14 05:04:04;;;;;;;8.93;4.95;;;15.70;77.30;;;;;;4920577;29;20044;-75
2023/06/14 05:06:30;;;;;;;7.97;4.55;;;15.70;75.80;;;;;;4935519;29;20093;-74
2023/06/14 05:08:57;;;;;;;6.97;4.00;;;15.70;74.30;;;;;;4942213;29;20102;-71
2023/06/14 05:11:24;;;;;;;6.50;4.45;;;15.80;75.80;;;;;;4927018;29;20032;-72
2023/06/14 05:13:51;;;;;;;6.60;4.10;;;15.80;75.50;;;;;;4926313;29;20036;-72
2023/06/14 05:16:19;;;;;;;9.23;4.75;;;15.80;74.10;;;;;;4927440;29;20036;-70
2023/06/14 05:18:47;;;;;;;7.88;4.85;;;15.80;73.60;;;;;;4926193;29;20027;-73
2023/06/14 05:21:16;;;;;;;8.52;4.80;;;15.80;73.20;;;;;;4922578;29;20061;-71
2023/06/14 05:23:41;;;;;;;9.05;4.47;;;15.80;73.60;;;;;;4908774;29;20031;-73
2023/06/14 05:26:07;;;;;;;9.38;4.60;;;15.80;72.60;;;;;;4907863;29;20040;-72
2023/06/14 05:28:33;;;;;;;8.23;3.97;;;15.80;71.40;;;;;;4908680;29;20036;-73
2023/06/14 05:30:58;;;;;;;8.05;4.65;;;15.90;72.90;;;;;;4907745;29;20092;-72
2023/06/14 05:33:24;;;;;;;7.72;4.97;;;16.00;73.60;;;;;;4908120;29;20243;-72
2023/06/14 05:35:50;;;;;;;12.65;4.97;;;16.20;73.10;;;;;;4925718;29;20147;-72
2023/06/14 05:38:16;;;;;;;8.38;4.47;;;16.30;73.10;;;;;;4927236;29;20104;-71
2023/06/14 05:40:42;;;;;;;6.80;4.43;;;16.50;72.90;;;;;;4927678;29;20028;-72
2023/06/14 05:43:07;;;;;;;8.68;4.50;;;16.60;72.20;;;;;;4926559;29;20202;-71
2023/06/14 05:45:33;;;;;;;7.18;4.47;;;16.80;70.80;;;;;;4927224;29;20043;-71
2023/06/14 05:47:59;;;;;;;7.20;4.40;;;16.90;70.80;;;;;;4926784;29;20027;-71
2023/06/14 05:50:24;;;;;;;7.20;4.35;;;17.00;69.70;;;;;;4925345;29;20029;-75
2023/06/14 05:52:51;;;;;;;7.50;4.70;;;17.10;70.40;;;;;;4908988;29;20314;-74
2023/06/14 05:55:17;;;;;;;7.53;4.25;;;17.20;70.60;;;;;;4925653;29;20313;-74
2023/06/14 05:57:43;;;;;;;7.53;4.40;;;17.20;70.30;;;;;;4926721;29;20039;-73
2023/06/14 06:00:14;;;;;;;7.07;4.57;;;17.20;70.70;;;;;;4925593;29;20036;-74
2023/06/14 06:02:43;;;;;;;8.68;4.82;;;17.10;70.10;;;;;;4937939;29;20122;-71
2023/06/14 06:05:10;;;;;;;7.95;4.50;;;17.20;70.60;;;;;;4960454;29;20039;-72
2023/06/14 06:07:37;;;;;;;11.18;4.30;;;17.20;70.90;;;;;;4940182;29;20044;-71
2023/06/14 06:10:03;;;;;;;9.55;4.88;;;17.30;71.30;;;;;;4937220;29;20083;-71
2023/06/14 06:12:29;;;;;;;9.15;4.60;;;17.40;71.00;;;;;;4926970;29;20276;-71
2023/06/14 06:14:55;;;;;;;9.15;4.53;;;17.50;70.20;;;;;;4926339;29;20031;-70
2023/06/14 06:17:20;;;;;;;7.50;4.65;;;17.60;69.90;;;;;;4926392;29;20054;-74
2023/06/14 06:19:46;;;;;;;8.18;4.43;;;17.80;69.70;;;;;;4926123;29;20317;-72
2023/06/14 06:22:12;;;;;;;9.05;4.40;;;18.00;70.20;;;;;;4928702;29;20027;-72
2023/06/14 06:24:38;;;;;;;10.23;4.30;;;18.10;71.70;;;;;;4925200;29;20024;-73
2023/06/14 06:27:04;;;;;;;9.32;4.65;;;18.30;69.00;;;;;;4925413;29;20032;-73
2023/06/14 06:29:29;;;;;;;6.90;4.10;;;18.40;68.30;;;;;;4926122;29;20043;-71
2023/06/14 06:31:56;;;;;;;11.80;4.40;;;18.40;67.80;;;;;;4925431;29;20054;-72
2023/06/14 06:34:22;;;;;;;7.80;4.65;;;18.50;68.20;;;;;;4925949;29;20062;-71
2023/06/14 06:36:48;;;;;;;7.70;4.22;;;18.70;68.80;;;;;;4926089;29;20036;-72
2023/06/14 06:39:14;;;;;;;10.70;4.20;;;18.80;67.30;;;;;;4928400;29;20036;-72
2023/06/14 06:41:40;;;;;;;10.95;4.60;;;18.90;67.50;;;;;;4925784;29;20038;-70
2023/06/14 06:44:07;;;;;;;24.80;5.55;;;19.00;65.40;;;;;;4924740;29;20040;-72
2023/06/14 06:46:33;;;;;;;15.43;4.68;;;19.10;64.50;;;;;;4924122;29;20036;-71
2023/06/14 06:49:00;;;;;;;9.18;5.68;;;19.20;66.20;;;;;;4925021;29;20055;-73
2023/06/14 06:51:25;;;;;;;8.48;4.00;;;19.50;65.20;;;;;;4924946;29;20103;-72
2023/06/14 06:53:55;;;;;;;9.88;4.20;;;19.60;64.20;;;;;;4928022;29;20024;-72
2023/06/14 06:56:23;;;;;;;7.03;3.90;;;19.70;64.30;;;;;;4925621;29;20040;-70
2023/06/14 06:58:51;;;;;;;7.15;3.83;;;19.70;62.80;;;;;;4925167;29;20205;-72
2023/06/14 07:01:19;;;;;;;9.50;3.75;;;19.70;63.00;;;;;;4923167;29;20040;-72
2023/06/14 07:03:45;;;;;;;5.90;3.40;;;19.70;62.40;;;;;;4925148;29;20059;-71
2023/06/14 07:06:11;;;;;;;7.10;3.67;;;19.80;65.00;;;;;;4924376;29;20028;-73
2023/06/14 07:08:40;;;;;;;8.02;4.28;;;19.80;63.50;;;;;;4926262;29;20103;-74
2023/06/14 07:11:07;;;;;;;9.18;4.30;;;20.00;62.80;;;;;;4943040;29;20027;-73
2023/06/14 07:13:32;;;;;;;5.93;3.60;;;20.10;62.10;;;;;;4946850;29;20242;-72
2023/06/14 07:16:00;;;;;;;7.05;4.13;;;20.00;60.80;;;;;;4947368;29;20098;-71
2023/06/14 07:18:26;;;;;;;7.88;3.50;;;20.00;61.10;;;;;;4947883;29;20100;-72
2023/06/14 07:20:55;;;;;;;5.63;3.67;;;20.00;62.10;;;;;;4962491;29;20071;-72
2023/06/14 07:23:21;;;;;;;9.10;4.18;;;20.00;61.60;;;;;;4947249;29;20039;-71
2023/06/14 07:25:47;;;;;;;8.80;3.40;;;19.90;62.60;;;;;;4935359;29;20040;-73
2023/06/14 07:28:12;;;;;;;14.18;3.80;;;20.00;62.30;;;;;;4928170;29;20047;-72
2023/06/14 07:30:38;;;;;;;6.70;3.70;;;20.00;62.10;;;;;;4926961;29;20028;-72
2023/06/14 07:33:04;;;;;;;6.35;3.17;;;20.00;61.50;;;;;;4927796;29;20028;-72
2023/06/14 07:35:30;;;;;;;5.10;3.53;;;20.00;62.10;;;;;;4928561;29;20076;-72
2023/06/14 07:37:55;;;;;;;7.30;3.60;;;20.00;61.60;;;;;;4928448;29;20031;-71
2023/06/14 07:40:21;;;;;;;8.07;3.63;;;20.20;60.90;;;;;;4932629;29;20035;-72
2023/06/14 07:42:47;;;;;;;11.02;3.53;;;20.30;60.90;;;;;;4947097;29;20029;-71
2023/06/14 07:45:15;;;;;;;6.18;3.38;;;20.30;60.20;;;;;;4947005;29;20083;-72
2023/06/14 07:47:41;;;;;;;8.68;3.70;;;20.40;60.10;;;;;;4946990;29;20043;-71
2023/06/14 07:50:07;;;;;;;11.25;6.45;;;20.30;60.90;;;;;;4946436;29;20030;-72
2023/06/14 07:52:35;;;;;;;7.05;3.53;;;20.20;61.50;;;;;;4946255;29;20024;-72
2023/06/14 07:55:01;;;;;;;11.38;4.38;;;20.30;61.00;;;;;;4945383;29;20207;-71
2023/06/14 07:57:27;;;;;;;6.88;3.85;;;20.40;62.60;;;;;;4932371;29;20103;-72
2023/06/14 07:59:52;;;;;;;7.68;3.80;;;20.60;61.50;;;;;;4927868;29;20314;-72
2023/06/14 08:02:18;;;;;;;6.85;3.80;;;20.80;61.60;;;;;;4927111;29;20064;-72
2023/06/14 08:04:44;;;;;;;12.00;4.22;;;20.70;61.20;;;;;;4928298;29;20039;-72
2023/06/14 08:07:10;;;;;;;8.63;3.75;;;20.80;61.90;;;;;;4927560;29;20040;-73
2023/06/14 08:09:39;;;;;;;5.65;4.13;;;20.90;61.40;;;;;;4933039;29;20043;-73
2023/06/14 08:12:11;;;;;;;8.60;3.88;;;20.70;61.90;;;;;;4940860;29;20031;-72
2023/06/14 08:14:38;;;;;;;9.27;4.13;;;20.90;61.50;;;;;;4927987;29;20062;-73
2023/06/14 08:17:04;;;;;;;8.25;3.55;;;21.00;62.10;;;;;;4927351;29;20226;-73
2023/06/14 08:19:30;;;;;;;7.70;4.10;;;21.10;62.40;;;;;;4927577;29;20119;-73
2023/06/14 08:21:57;;;;;;;8.73;4.00;;;21.20;62.40;;;;;;4927228;29;20028;-74
2023/06/14 08:24:26;;;;;;;6.70;4.25;;;21.40;62.50;;;;;;4926069;29;20265;-74
2023/06/14 08:26:53;;;;;;;6.57;3.95;;;21.50;61.60;;;;;;4928288;29;20040;-72
2023/06/14 08:29:19;;;;;;;7.07;3.63;;;21.70;60.90;;;;;;4929667;29;20028;-72
2023/06/14 08:31:45;;;;;;;6.90;3.33;;;21.70;61.40;;;;;;4927698;29;20054;-73
2023/06/14 08:34:11;;;;;;;6.75;3.88;;;21.80;61.30;;;;;;4926212;29;20031;-73
2023/06/14 08:36:36;;;;;;;6.63;3.50;;;22.00;61.20;;;;;;4927610;29;20032;-74
2023/06/14 08:39:03;;;;;;;14.57;9.57;;;22.10;60.00;;;;;;4927439;29;20066;-73
2023/06/14 08:41:29;;;;;;;7.72;4.65;;;22.20;60.70;;;;;;4927523;29;20032;-72
2023/06/14 08:43:56;;;;;;;6.53;3.70;;;22.30;60.50;;;;;;4930068;29;20031;-72
2023/06/14 08:46:27;;;;;;;5.78;3.13;;;22.50;59.80;;;;;;4926511;29;20256;-71
2023/06/14 08:48:56;;;;;;;9.07;3.83;;;22.50;59.50;;;;;;4926836;29;20099;-71
2023/06/14 08:51:24;;;;;;;7.28;3.58;;;22.70;59.20;;;;;;4926444;29;20416;-72
2023/06/14 08:53:58;;;;;;;7.68;3.15;;;22.70;57.70;;;;;;4925543;29;20075;-71
2023/06/14 08:56:33;;;;;;;8.50;3.92;;;23.00;57.80;;;;;;4926447;29;20155;-71
2023/06/14 08:59:03;;;;;;;7.80;3.83;;;23.10;57.10;;;;;;4929866;29;20044;-70
2023/06/14 09:01:34;;;;;;;7.22;3.50;;;23.20;58.10;;;;;;4926787;29;20036;-73
2023/06/14 09:04:00;;;;;;;9.40;3.90;;;23.30;57.20;;;;;;4927186;29;20052;-73
2023/06/14 09:06:28;;;;;;;8.85;3.88;;;23.30;57.10;;;;;;4926359;29;20091;-72
2023/06/14 09:08:57;;;;;;;6.72;3.42;;;23.50;57.70;;;;;;4926865;29;20075;-73
2023/06/14 09:11:23;;;;;;;10.65;3.35;;;23.50;57.20;;;;;;4944882;29;20043;-73
2023/06/14 09:13:49;;;;;;;7.22;4.53;;;23.40;56.90;;;;;;4944493;29;20102;-73
2023/06/14 09:16:16;;;;;;;7.88;3.80;;;23.40;56.50;;;;;;4941898;29;20039;-73
2023/06/14 09:18:50;;;;;;;5.40;3.35;;;23.40;56.90;;;;;;4960792;29;20024;-72
2023/06/14 09:21:16;;;;;;;5.55;3.33;;;23.60;56.30;;;;;;4944866;29;20039;-73
2023/06/14 09:23:47;;;;;;;5.22;3.03;;;23.50;56.00;;;;;;4945494;29;20076;-73
2023/06/14 09:26:23;;;;;;;7.88;3.67;;;23.60;57.20;;;;;;4944350;29;20042;-74
2023/06/14 09:28:50;;;;;;;8.73;3.38;;;23.70;56.40;;;;;;4945577;29;20091;-71
2023/06/14 09:31:20;;;;;;;8.10;3.80;;;23.70;55.60;;;;;;4932490;29;20044;-75
2023/06/14 09:33:48;;;;;;;8.30;3.38;;;23.50;56.60;;;;;;4926717;29;20036;-71
2023/06/14 09:36:22;;;;;;;7.20;3.20;;;23.70;56.50;;;;;;4926102;29;20039;-75
2023/06/14 09:38:58;;;;;;;7.20;3.55;;;23.60;55.70;;;;;;4926529;29;20314;-73
2023/06/14 09:41:40;;;;;;;5.28;3.20;;;23.70;55.80;;;;;;4925551;29;20043;-72
2023/06/14 09:44:08;;;;;;;6.53;3.03;;;23.80;54.20;;;;;;4925997;29;20213;-74
2023/06/14 09:46:35;;;;;;;5.65;3.35;;;23.90;54.60;;;;;;4929538;29;20095;-74
2023/06/14 09:49:02;;;;;;;6.30;3.03;;;24.00;54.00;;;;;;4926514;29;20111;-73
2023/06/14 09:51:30;;;;;;;7.05;2.97;;;24.20;52.50;;;;;;4926079;29;20104;-74
2023/06/14 09:54:00;;;;;;;7.85;3.50;;;24.20;52.60;;;;;;4926230;29;20036;-72
2023/06/14 09:56:31;;;;;;;9.80;3.22;;;24.40;53.60;;;;;;4925471;29;20323;-72
2023/06/14 09:58:58;;;;;;;5.53;3.53;;;24.70;54.00;;;;;;4926042;29;20088;-74
2023/06/14 10:01:30;;;;;;;5.13;3.03;;;25.00;53.20;;;;;;4929530;29;20016;-73
2023/06/14 10:04:00;;;;;;;7.10;3.33;;;25.10;51.40;;;;;;4934846;29;20048;-73
2023/06/14 10:06:28;;;;;;;8.10;3.33;;;25.50;51.30;;;;;;4929790;29;20609;-73
2023/06/14 10:08:59;;;;;;;5.75;3.00;;;25.70;49.60;;;;;;4927856;29;20099;-74
2023/06/14 10:11:26;;;;;;;6.07;3.25;;;25.80;49.80;;;;;;4943471;29;20053;-72
2023/06/14 10:13:52;;;;;;;11.98;3.35;;;26.10;49.40;;;;;;4945194;29;20348;-74
2023/06/14 10:16:23;;;;;;;5.18;2.50;;;26.20;48.80;;;;;;4944796;29;20051;-71
2023/06/14 10:19:00;;;;;;;4.63;3.00;;;26.50;46.40;;;;;;4945496;29;20027;-74
2023/06/14 10:21:50;;;;;;;5.93;2.63;;;26.50;46.60;;;;;;4944408;29;20317;-72
2023/06/14 10:24:18;;;;;;;5.47;2.97;;;26.60;47.50;;;;;;4944728;29;20272;-72
2023/06/14 10:26:59;;;;;;;8.70;3.47;;;26.60;48.50;;;;;;4944647;29;20036;-72
2023/06/14 10:29:25;;;;;;;8.93;4.15;;;26.60;49.40;;;;;;4945036;29;20048;-74
2023/06/14 10:31:59;;;;;;;7.55;4.07;;;26.60;47.80;;;;;;4945105;29;20032;-73
2023/06/14 10:34:27;;;;;;;5.60;2.80;;;26.50;48.70;;;;;;4945015;29;20039;-74
2023/06/14 10:37:06;;;;;;;8.18;3.08;;;26.60;48.00;;;;;;4945280;29;20051;-75
2023/06/14 10:39:38;;;;;;;7.78;3.40;;;26.30;48.60;;;;;;4944661;29;20043;-73
2023/06/14 10:42:05;;;;;;;5.47;3.08;;;25.90;51.20;;;;;;4944411;29;20036;-74
2023/06/14 10:44:41;;;;;;;5.47;3.00;;;25.70;51.40;;;;;;4945363;29;20265;-74
2023/06/14 10:47:29;;;;;;;5.78;3.00;;;25.60;51.60;;;;;;4947329;29;20126;-75
2023/06/14 10:50:05;;;;;;;5.75;2.85;;;25.40;52.20;;;;;;4941825;29;20351;-73
2023/06/14 10:52:35;;;;;;;7.47;3.13;;;25.30;52.30;;;;;;4947534;29;20285;-74
2023/06/14 10:55:14;;;;;;;11.40;3.25;;;25.40;51.90;;;;;;4947657;29;20063;-74
2023/06/14 10:57:51;;;;;;;5.57;3.13;;;25.80;51.20;;;;;;4947385;29;20043;-74
2023/06/14 11:00:22;;;;;;;7.75;3.00;;;26.00;51.60;;;;;;4948270;29;20032;-75
2023/06/14 11:03:22;;;;;;;5.60;3.10;;;25.80;50.90;;;;;;4948462;29;20043;-74
2023/06/14 11:05:47;;;;;;;4.75;2.75;;;25.50;51.00;;;;;;4947339;29;20095;-74
2023/06/14 11:08:50;;;;;;;4.68;2.67;;;25.50;50.30;;;;;;4947909;29;20216;-79
2023/06/14 11:11:18;;;;;;;6.72;3.40;;;25.70;50.00;;;;;;4948099;29;20066;-74
2023/06/14 11:13:45;;;;;;;4.15;2.85;;;26.10;50.00;;;;;;4948201;29;20242;-75
2023/06/14 11:16:20;;;;;;;5.32;2.90;;;26.10;49.70;;;;;;4947144;29;20248;-74
2023/06/14 11:18:49;;;;;;;5.43;3.13;;;26.30;49.20;;;;;;4948052;29;20061;-75
2023/06/14 11:21:18;;;;;;;4.78;2.67;;;26.60;48.40;;;;;;4947087;29;20038;-74
2023/06/14 11:23:55;;;;;;;6.00;2.72;;;26.60;48.40;;;;;;4948078;29;20074;-71
2023/06/14 11:26:28;;;;;;;4.68;2.65;;;26.60;48.20;;;;;;4947461;29;20078;-75
2023/06/14 11:28:59;;;;;;;4.78;2.58;;;26.80;47.60;;;;;;4947977;29;20035;-76
2023/06/14 11:31:26;;;;;;;8.77;3.65;;;26.90;47.50;;;;;;4947347;29;20031;-75
2023/06/14 11:33:56;;;;;;;7.60;3.30;;;27.10;47.10;;;;;;4947885;29;20043;-77
2023/06/14 11:36:23;;;;;;;4.85;2.97;;;27.50;47.40;;;;;;4947107;29;20059;-75
2023/06/14 11:38:49;;;;;;;4.25;2.90;;;27.80;47.50;;;;;;4948033;29;20103;-75
2023/06/14 11:41:14;;;;;;;3.42;2.45;;;28.20;46.90;;;;;;4947032;29;20047;-74
2023/06/14 11:43:40;;;;;;;5.78;2.72;;;28.80;45.80;;;;;;4947306;29;20032;-74
2023/06/14 11:46:14;;;;;;;4.60;2.53;;;29.10;45.10;;;;;;4947467;29;20035;-74
2023/06/14 11:48:43;;;;;;;7.22;2.80;;;29.90;44.90;;;;;;4945301;29;20107;-73
2023/06/14 11:51:09;;;;;;;8.10;2.85;;;30.40;44.10;;;;;;4948773;29;20070;-73
2023/06/14 11:53:35;;;;;;;7.13;2.85;;;31.30;43.50;;;;;;4937904;29;20214;-72
2023/06/14 11:56:01;;;;;;;3.03;2.17;;;32.70;43.20;;;;;;4940180;29;20050;-74
2023/06/14 11:58:28;;;;;;;4.00;2.53;;;33.80;41.50;;;;;;4936689;29;20036;-72
2023/06/14 12:00:55;;;;;;;7.30;2.58;;;33.70;40.80;;;;;;4937064;29;20205;-74
2023/06/14 12:03:28;;;;;;;5.55;2.58;;;34.90;41.00;;;;;;4946362;29;20194;-73
2023/06/14 12:06:05;;;;;;;4.60;2.67;;;35.60;40.10;;;;;;4947126;29;20058;-73
2023/06/14 12:08:41;;;;;;;7.00;2.58;;;36.00;39.80;;;;;;4935685;29;20032;-73
2023/06/14 12:11:15;;;;;;;5.28;2.10;;;36.40;40.20;;;;;;4943904;29;20047;-74
2023/06/14 12:13:43;;;;;;;4.00;2.40;;;36.40;39.80;;;;;;4947461;29;20066;-75
2023/06/14 12:16:10;;;;;;;4.90;2.30;;;37.20;39.60;;;;;;4947716;29;20044;-73
2023/06/14 12:18:37;;;;;;;5.25;2.42;;;36.80;39.40;;;;;;4946539;29;20036;-73
2023/06/14 12:21:07;;;;;;;5.50;2.60;;;37.00;39.60;;;;;;4946113;29;20040;-74
2023/06/14 12:23:43;;;;;;;4.60;2.50;;;37.90;39.50;;;;;;4928052;29;20091;-74
2023/06/14 12:26:09;;;;;;;4.53;2.28;;;38.40;38.30;;;;;;4942072;29;20052;-73
2023/06/14 12:28:34;;;;;;;4.72;2.33;;;38.70;38.40;;;;;;4946707;29;20274;-74
2023/06/14 12:31:00;;;;;;;3.65;2.28;;;39.10;38.10;;;;;;4946751;29;20032;-75
2023/06/14 12:33:26;;;;;;;4.13;2.50;;;39.50;37.10;;;;;;4945984;29;20054;-72
2023/06/14 12:35:56;;;;;;;5.82;2.42;;;39.10;37.40;;;;;;4946702;29;20068;-73
2023/06/14 12:38:22;;;;;;;3.63;2.00;;;39.30;37.80;;;;;;4946407;29;20376;-75
2023/06/14 12:40:48;;;;;;;2.75;2.15;;;39.50;37.50;;;;;;4945758;29;20027;-74
2023/06/14 12:43:13;;;;;;;3.40;2.30;;;40.30;37.60;;;;;;4936589;29;20313;-73
2023/06/14 12:45:39;;;;;;;5.68;2.40;;;40.70;37.10;;;;;;4929348;29;20098;-74
2023/06/14 12:48:05;;;;;;;8.98;3.00;;;40.70;36.80;;;;;;4929446;29;20078;-76
2023/06/14 12:50:30;;;;;;;6.18;2.13;;;41.30;36.90;;;;;;4926292;29;20115;-73
2023/06/14 12:52:56;;;;;;;4.40;2.40;;;40.60;36.10;;;;;;4943030;29;20028;-76
2023/06/14 12:55:22;;;;;;;4.05;2.35;;;39.50;36.80;;;;;;4946637;29;20229;-71
2023/06/14 12:57:49;;;;;;;4.03;2.20;;;38.00;38.20;;;;;;4943255;29;20083;-73
2023/06/14 13:00:17;;;;;;;4.45;2.50;;;38.40;37.60;;;;;;4927705;29;20321;-73
2023/06/14 13:02:43;;;;;;;5.35;2.47;;;39.20;38.20;;;;;;4941463;29;20044;-74
2023/06/14 13:05:09;;;;;;;5.20;1.98;;;40.10;36.70;;;;;;4927230;29;20231;-76
2023/06/14 13:07:35;;;;;;;4.32;2.40;;;39.70;36.40;;;;;;4926578;29;20109;-72
2023/06/14 13:10:01;;;;;;;9.10;2.28;;;41.20;36.70;;;;;;4934745;29;20063;-73
2023/06/14 13:12:26;;;;;;;4.85;2.50;;;42.50;36.70;;;;;;4945774;29;20151;-73
2023/06/14 13:14:52;;;;;;;3.28;1.80;;;42.30;36.50;;;;;;4946048;29;20048;-73
2023/06/14 13:17:18;;;;;;;4.55;2.42;;;41.90;35.90;;;;;;4945520;29;20084;-75
2023/06/14 13:19:44;;;;;;;5.10;2.40;;;42.10;36.30;;;;;;4944679;29;20035;-73
2023/06/14 13:22:10;;;;;;;8.25;2.63;;;42.90;35.80;;;;;;4945412;29;20313;-74
2023/06/14 13:24:36;;;;;;;3.03;2.17;;;42.70;36.20;;;;;;4944946;29;20035;-73
2023/06/14 13:27:01;;;;;;;4.45;1.90;;;42.20;35.50;;;;;;4945876;29;20050;-72
2023/06/14 13:29:27;;;;;;;4.28;2.28;;;40.80;36.20;;;;;;4945542;29;20020;-73
2023/06/14 13:31:54;;;;;;;4.97;2.38;;;39.90;36.70;;;;;;4945876;29;20026;-73
2023/06/14 13:34:20;;;;;;;5.15;2.35;;;37.80;37.60;;;;;;4945463;29;20047;-72
2023/06/14 13:36:45;;;;;;;6.78;2.80;;;36.20;39.10;;;;;;4946024;29;20050;-73
2023/06/14 13:39:11;;;;;;;6.63;2.67;;;34.90;40.40;;;;;;4946022;29;20016;-72
2023/06/14 13:41:37;;;;;;;5.05;2.65;;;34.90;40.50;;;;;;4944100;29;20203;-72
2023/06/14 13:44:03;;;;;;;6.70;2.40;;;36.00;39.10;;;;;;4945952;29;20099;-72
2023/06/14 13:46:30;;;;;;;4.20;2.47;;;35.40;39.10;;;;;;4945009;29;20103;-72
2023/06/14 13:48:57;;;;;;;3.28;2.58;;;35.50;39.60;;;;;;4945423;29;20043;-73
2023/06/14 13:51:22;;;;;;;4.25;2.47;;;36.80;39.50;;;;;;4944716;29;20306;-73
2023/06/14 13:53:49;;;;;;;3.50;2.08;;;38.40;38.70;;;;;;4944898;29;20051;-72
2023/06/14 13:56:15;;;;;;;6.10;2.42;;;40.20;37.30;;;;;;4943990;29;20177;-72
2023/06/14 13:58:41;;;;;;;3.17;1.92;;;41.10;36.40;;;;;;4934182;29;20415;-73
2023/06/14 14:01:08;;;;;;;6.05;2.40;;;41.50;35.80;;;;;;4926375;29;20040;-72
2023/06/14 14:03:34;;;;;;;3.47;2.17;;;38.90;36.70;;;;;;4925458;29;20119;-71
2023/06/14 14:06:01;;;;;;;3.15;2.20;;;39.40;37.30;;;;;;4925683;29;20040;-71
2023/06/14 14:08:27;;;;;;;5.82;2.55;;;40.70;37.40;;;;;;4925307;29;20044;-71
2023/06/14 14:10:54;;;;;;;5.75;2.22;;;42.40;36.70;;;;;;4925744;29;20044;-72
2023/06/14 14:13:20;;;;;;;4.13;2.42;;;42.30;36.30;;;;;;4926003;29;20067;-72
2023/06/14 14:15:46;;;;;;;5.38;2.22;;;42.90;36.30;;;;;;4926057;29;20063;-72
2023/06/14 14:18:12;;;;;;;4.18;2.10;;;41.90;36.40;;;;;;4925850;29;20215;-72
2023/06/14 14:20:37;;;;;;;3.28;2.17;;;40.20;36.90;;;;;;4939106;29;20087;-74
2023/06/14 14:23:04;;;;;;;5.03;2.33;;;38.60;37.50;;;;;;4925759;29;20021;-72
2023/06/14 14:25:30;;;;;;;6.53;2.85;;;37.90;38.00;;;;;;4927880;29;20135;-72
2023/06/14 14:27:56;;;;;;;6.07;2.33;;;37.70;38.80;;;;;;4944430;29;20043;-72
2023/06/14 14:30:23;;;;;;;4.38;2.47;;;37.20;38.40;;;;;;4944249;29;20067;-72
2023/06/14 14:32:50;;;;;;;4.95;2.22;;;35.90;39.30;;;;;;4944758;29;20106;-72
2023/06/14 14:35:17;;;;;;;3.67;2.65;;;34.70;39.70;;;;;;4944756;29;20229;-73
2023/06/14 14:37:43;;;;;;;4.05;2.75;;;33.90;41.00;;;;;;4959262;29;20070;-72
2023/06/14 14:40:10;;;;;;;6.03;2.75;;;33.70;40.90;;;;;;4945019;29;20074;-71
2023/06/14 14:42:36;;;;;;;5.50;2.50;;;34.00;41.30;;;;;;4944187;29;20042;-73
2023/06/14 14:45:03;;;;;;;3.95;2.47;;;35.10;40.70;;;;;;4944741;29;20035;-72
2023/06/14 14:47:28;;;;;;;3.10;2.25;;;35.30;39.70;;;;;;4959137;29;20095;-73
2023/06/14 14:49:54;;;;;;;4.65;2.50;;;36.50;39.10;;;;;;4944657;29;20269;-72
2023/06/14 14:52:20;;;;;;;4.15;2.50;;;38.20;38.10;;;;;;4944509;29;20043;-71
2023/06/14 14:54:46;;;;;;;3.00;2.10;;;40.20;37.10;;;;;;4943859;29;20028;-73
2023/06/14 14:57:11;;;;;;;3.47;2.17;;;41.40;36.00;;;;;;4944122;29;20043;-72
2023/06/14 14:59:37;;;;;;;5.32;2.25;;;42.10;35.90;;;;;;4925630;29;20028;-71
2023/06/14 15:02:03;;;;;;;3.90;1.88;;;43.50;35.40;;;;;;4924763;29;20095;-72
2023/06/14 15:04:29;;;;;;;3.42;2.20;;;44.10;34.90;;;;;;4924459;29;20100;-72
2023/06/14 15:06:54;;;;;;;3.22;2.17;;;44.10;35.00;;;;;;4924450;29;20107;-73
2023/06/14 15:09:20;;;;;;;4.63;2.10;;;42.90;35.40;;;;;;4925078;29;20262;-72
2023/06/14 15:11:46;;;;;;;4.20;2.10;;;43.10;35.70;;;;;;4924901;29;20038;-73
2023/06/14 15:14:12;;;;;;;8.32;2.30;;;42.90;35.60;;;;;;4925525;29;20220;-71
2023/06/14 15:16:37;;;;;;;4.10;2.00;;;43.10;35.60;;;;;;4924338;29;20390;-72
2023/06/14 15:19:03;;;;;;;4.47;2.17;;;43.40;35.70;;;;;;4924200;29;20032;-72
2023/06/14 15:21:29;;;;;;;3.97;2.15;;;44.10;35.10;;;;;;4924607;29;20032;-72
2023/06/14 15:23:54;;;;;;;4.60;2.00;;;44.20;35.20;;;;;;4925031;29;20028;-72
2023/06/14 15:26:20;;;;;;;4.25;2.08;;;44.80;35.60;;;;;;4934699;29;20035;-71
2023/06/14 15:28:46;;;;;;;4.15;1.90;;;44.60;34.90;;;;;;4943538;29;20035;-72
2023/06/14 15:31:12;;;;;;;4.07;2.22;;;44.90;35.10;;;;;;4944408;29;20274;-73
2023/06/14 15:33:38;;;;;;;3.33;1.95;;;44.20;34.80;;;;;;4929837;29;20124;-73
2023/06/14 15:36:05;;;;;;;3.97;2.20;;;43.50;35.40;;;;;;4947864;29;20039;-73
2023/06/14 15:38:32;;;;;;;3.40;2.00;;;43.00;35.10;;;;;;4947977;29;20103;-74
2023/06/14 15:40:58;;;;;;;4.77;2.17;;;43.50;34.90;;;;;;4948364;29;20027;-75
2023/06/14 15:43:23;;;;;;;3.28;2.00;;;43.70;35.00;;;;;;4947869;29;20039;-73
2023/06/14 15:45:49;;;;;;;4.63;2.00;;;43.50;34.80;;;;;;4947741;29;20031;-74
2023/06/14 15:48:15;;;;;;;4.90;2.00;;;43.10;35.00;;;;;;4963182;29;20055;-75
2023/06/14 15:50:40;;;;;;;4.25;2.10;;;42.70;35.30;;;;;;4947683;29;20212;-74
2023/06/14 15:53:06;;;;;;;3.83;2.10;;;42.50;35.30;;;;;;4948352;29;20024;-73
2023/06/14 15:55:32;;;;;;;4.88;2.55;;;42.70;35.40;;;;;;4947410;29;20035;-74
2023/06/14 15:57:57;;;;;;;3.53;2.10;;;43.50;35.00;;;;;;4943447;29;20032;-74
2023/06/14 16:00:25;;;;;;;4.20;2.10;;;44.20;34.70;;;;;;4928921;29;20222;-75
2023/06/14 16:02:53;;;;;;;6.90;2.47;;;44.20;34.40;;;;;;4931066;29;20076;-78
2023/06/14 16:05:19;;;;;;;3.85;2.10;;;43.60;34.40;;;;;;4930119;29;20043;-74
2023/06/14 16:07:45;;;;;;;3.72;2.30;;;44.10;34.30;;;;;;4928004;29;20040;-72
2023/06/14 16:10:11;;;;;;;4.22;1.95;;;43.50;34.50;;;;;;4928611;29;20250;-72
2023/06/14 16:12:36;;;;;;;4.25;2.33;;;44.20;34.40;;;;;;4928077;29;20087;-73
2023/06/14 16:15:02;;;;;;;4.70;2.33;;;44.50;34.00;;;;;;4928778;29;20028;-72
2023/06/14 16:17:54;;;;;;;4.30;2.40;;;44.30;33.90;;;;;;4928457;29;20205;-76
2023/06/14 16:20:44;;;;;;;4.63;2.40;;;44.30;34.10;;;;;;4926659;29;20221;-72
2023/06/14 16:23:10;;;;;;;3.60;1.92;;;43.90;34.40;;;;;;4928158;29;20035;-73
2023/06/14 16:25:36;;;;;;;4.82;2.20;;;44.10;35.00;;;;;;4929145;29;20044;-73
2023/06/14 16:28:02;;;;;;;4.20;2.30;;;44.20;34.90;;;;;;4947343;29;20329;-73
2023/06/14 16:30:28;;;;;;;4.53;2.10;;;44.00;34.50;;;;;;4947231;29;20028;-74
2023/06/14 16:32:54;;;;;;;3.92;2.05;;;43.60;34.60;;;;;;4947215;29;20079;-73
2023/06/14 16:35:20;;;;;;;5.93;2.33;;;44.30;34.50;;;;;;4947105;29;20023;-74
2023/06/14 16:37:45;;;;;;;5.10;2.05;;;44.20;34.60;;;;;;4946537;29;20039;-72
2023/06/14 16:40:11;;;;;;;2.80;1.80;;;42.40;35.10;;;;;;4947108;29;20035;-75
2023/06/14 16:42:37;;;;;;;3.38;2.10;;;40.20;36.10;;;;;;4946796;29;20032;-72
2023/06/14 16:45:03;;;;;;;6.68;2.65;;;39.60;36.80;;;;;;4946893;29;20036;-72
2023/06/14 16:47:29;;;;;;;4.55;2.33;;;39.70;36.50;;;;;;4947532;29;20039;-73
2023/06/14 16:49:55;;;;;;;5.47;2.70;;;39.60;36.90;;;;;;4947228;29;20102;-73
2023/06/14 16:52:21;;;;;;;3.05;2.22;;;39.60;36.80;;;;;;4947451;29;20019;-72
2023/06/14 16:54:46;;;;;;;4.30;2.47;;;38.00;37.30;;;;;;4947662;29;20038;-73
2023/06/14 16:57:12;;;;;;;3.97;2.42;;;35.90;38.60;;;;;;4947471;29;20056;-72
2023/06/14 16:59:38;;;;;;;6.40;2.78;;;33.90;40.00;;;;;;4929113;29;20035;-72
2023/06/14 17:02:04;;;;;;;5.05;2.88;;;32.90;41.90;;;;;;4927904;29;20052;-73
2023/06/14 17:04:30;;;;;;;4.10;2.42;;;32.10;42.00;;;;;;4927934;29;20094;-73
2023/06/14 17:06:57;;;;;;;5.60;2.70;;;31.60;43.10;;;;;;4927388;29;20043;-73
2023/06/14 17:09:23;;;;;;;7.22;3.22;;;31.20;42.50;;;;;;4927952;29;20036;-74
2023/06/14 17:11:49;;;;;;;6.55;2.47;;;31.80;42.30;;;;;;4927107;29;20043;-73
2023/06/14 17:14:15;;;;;;;5.88;2.55;;;33.40;41.10;;;;;;4927932;29;20039;-73
2023/06/14 17:16:40;;;;;;;3.30;2.20;;;34.70;40.30;;;;;;4927247;29;20042;-76
2023/06/14 17:19:07;;;;;;;4.57;2.30;;;36.00;39.80;;;;;;4927711;29;20039;-75
2023/06/14 17:21:32;;;;;;;4.35;2.47;;;36.60;39.10;;;;;;4927213;29;20040;-74
2023/06/14 17:23:58;;;;;;;5.35;2.63;;;37.20;38.40;;;;;;4927435;29;20361;-75
2023/06/14 17:26:28;;;;;;;4.05;2.50;;;37.40;38.40;;;;;;4937086;29;20214;-74
2023/06/14 17:28:56;;;;;;;5.57;2.65;;;37.50;38.80;;;;;;4946158;29;20050;-73
2023/06/14 17:31:22;;;;;;;5.13;2.72;;;37.70;38.70;;;;;;4946353;29;20063;-73
2023/06/14 17:33:47;;;;;;;4.03;2.53;;;37.60;38.60;;;;;;4945714;29;20031;-73
2023/06/14 17:36:13;;;;;;;3.70;2.50;;;37.60;38.30;;;;;;4946368;29;20040;-74
2023/06/14 17:38:39;;;;;;;3.47;2.30;;;37.20;38.20;;;;;;4945741;29;20019;-74
2023/06/14 17:41:11;;;;;;;4.25;2.30;;;37.20;38.40;;;;;;4945513;29;20246;-74
2023/06/14 17:43:37;;;;;;;6.57;2.60;;;37.20;38.40;;;;;;4945579;29;20039;-73
2023/06/14 17:46:02;;;;;;;4.00;2.90;;;37.50;38.60;;;;;;4944136;29;20019;-73
2023/06/14 17:48:33;;;;;;;8.65;2.22;;;37.60;38.20;;;;;;4929449;29;20035;-74